| time (UTC) | temp F | wind direction | speed knots | gust knots | rain 1hr in | rain 24hr in | rain mn in | humidity % | barometer mb |
| 20260504081529 | 41 | 272 | 0.0 | 0.0 | 0.00 | 0.00 | 0.00 | 86 | 978.2 |
| 20260504050018 | 41 | 292 | 0.9 | 0.0 | 0.00 | 0.00 | 0.00 | 86 | 978.3 |
| 20260504044514 | 40 | 293 | 0.0 | 0.0 | 0.00 | 0.00 | 0.00 | 92 | 978.3 |
| 20260504043010 | 40 | 293 | 0.0 | 0.0 | 0.00 | 0.00 | 0.00 | 91 | 978.3 |
| 20260504041505 | 40 | 293 | 0.0 | 0.0 | 0.00 | 0.00 | 0.00 | 90 | 978.1 |
| 20260504040002 | 40 | 293 | 0.0 | 0.0 | 0.00 | 0.00 | 0.00 | 89 | 978.2 |
| 20260504034634 | 41 | 292 | 0.0 | 0.0 | 0.00 | 0.00 | 0.00 | 87 | 978.0 |
| 20260504033059 | 41 | 293 | 0.0 | 0.0 | 0.00 | 0.00 | 0.00 | 85 | 978.0 |
| 20260504031559 | 42 | 293 | 0.0 | 0.0 | 0.00 | 0.00 | 0.00 | 84 | 977.9 |
| 20260504030121 | 42 | 293 | 0.0 | 0.0 | 0.00 | 0.00 | 0.00 | 82 | 977.8 |
| 20260504024601 | 43 | 293 | 0.0 | 0.0 | 0.00 | 0.00 | 0.00 | 81 | 977.9 |
| 20260504023057 | 44 | 292 | 0.0 | 0.0 | 0.00 | 0.00 | 0.00 | 79 | 977.9 |
| 20260504021558 | 45 | 292 | 0.0 | 0.0 | 0.00 | 0.00 | 0.00 | 77 | 977.8 |
| 20260504020107 | 46 | 292 | 0.0 | 0.0 | 0.00 | 0.00 | 0.00 | 75 | 977.8 |
| 20260504014604 | 47 | 293 | 0.0 | 0.0 | 0.00 | 0.00 | 0.00 | 73 | 977.7 |
| 20260504013057 | 49 | 293 | 0.0 | 0.0 | 0.00 | 0.00 | 0.00 | 70 | 977.5 |
| 20260504011555 | 50 | 293 | 0.0 | 0.0 | 0.00 | 0.00 | 0.00 | 67 | 977.4 |
| 20260504010055 | 51 | 293 | 0.0 | 0.0 | 0.00 | 0.00 | 0.00 | 63 | 977.3 |
| 20260504004554 | 52 | 292 | 0.0 | 0.0 | 0.00 | 0.00 | 0.00 | 60 | 977.1 |
| 20260504003055 | 53 | 292 | 0.0 | 0.0 | 0.00 | 0.00 | 0.00 | 57 | 976.9 |
| 20260504001604 | 54 | 293 | 0.0 | 0.0 | 0.00 | 0.00 | 0.00 | 55 | 976.6 |
| 20260504000056 | 55 | 294 | 0.0 | 0.0 | 0.00 | 0.00 | 0.00 | 53 | 976.5 |
| 20260503234552 | 56 | 298 | 0.9 | 0.0 | 0.00 | 0.00 | 0.00 | 52 | 976.5 |
| 20260503233051 | 56 | 275 | 0.9 | 0.0 | 0.00 | 0.00 | 0.00 | 52 | 976.2 |
| 20260503231553 | 57 | 240 | 1.7 | 0.0 | 0.00 | 0.00 | 0.00 | 51 | 976.3 |
| 20260503230051 | 58 | 277 | 1.7 | 0.0 | 0.00 | 0.00 | 0.00 | 50 | 976.2 |
| 20260503224551 | 58 | 264 | 1.7 | 0.0 | 0.00 | 0.00 | 0.00 | 49 | 976.1 |
| 20260503223050 | 59 | 292 | 1.7 | 0.0 | 0.00 | 0.00 | 0.00 | 50 | 976.1 |
| 20260503221550 | 59 | 280 | 4.3 | 0.0 | 0.00 | 0.00 | 0.00 | 49 | 976.1 |
| 20260503220048 | 58 | 259 | 3.5 | 0.0 | 0.00 | 0.00 | 0.00 | 49 | 976.2 |
| 20260503214559 | 58 | 275 | 2.6 | 0.0 | 0.00 | 0.00 | 0.00 | 50 | 976.1 |
| 20260503213048 | 58 | 281 | 3.5 | 0.0 | 0.00 | 0.00 | 0.00 | 48 | 976.2 |
| 20260503211552 | 58 | 283 | 3.5 | 0.0 | 0.00 | 0.00 | 0.00 | 48 | 976.2 |
| 20260503210044 | 57 | 285 | 2.6 | 0.0 | 0.00 | 0.00 | 0.00 | 49 | 976.1 |
| 20260503204552 | 57 | 269 | 2.6 | 0.0 | 0.00 | 0.00 | 0.00 | 48 | 976.1 |
| 20260503203047 | 57 | 283 | 4.3 | 0.0 | 0.00 | 0.00 | 0.00 | 49 | 976.3 |
| 20260503201541 | 57 | 309 | 3.5 | 0.0 | 0.00 | 0.00 | 0.00 | 52 | 976.3 |
| 20260503200040 | 57 | 324 | 3.5 | 0.0 | 0.00 | 0.00 | 0.00 | 49 | 976.5 |
| 20260503194542 | 57 | 27 | 6.1 | 0.0 | 0.00 | 0.00 | 0.00 | 51 | 976.7 |
| 20260503193041 | 56 | 325 | 5.2 | 0.0 | 0.00 | 0.00 | 0.00 | 50 | 976.8 |
| 20260503191537 | 56 | 291 | 4.3 | 0.0 | 0.00 | 0.00 | 0.00 | 54 | 976.8 |
| 20260503190045 | 56 | 279 | 5.2 | 0.0 | 0.00 | 0.00 | 0.00 | 49 | 977.1 |
| 20260503184536 | 56 | 300 | 6.1 | 0.0 | 0.00 | 0.00 | 0.00 | 49 | 977.2 |
| 20260503183040 | 56 | 294 | 5.2 | 0.0 | 0.00 | 0.00 | 0.00 | 50 | 977.3 |
| 20260503181532 | 55 | 329 | 6.1 | 0.0 | 0.00 | 0.00 | 0.00 | 50 | 977.4 |
| 20260503180042 | 55 | 307 | 5.2 | 0.0 | 0.00 | 0.00 | 0.00 | 50 | 977.5 |
| 20260503174532 | 55 | 293 | 5.2 | 0.0 | 0.00 | 0.00 | 0.00 | 49 | 977.5 |
| 20260503173030 | 54 | 267 | 7.0 | 0.0 | 0.00 | 0.00 | 0.00 | 49 | 977.5 |
| 20260503171538 | 53 | 279 | 5.2 | 0.0 | 0.00 | 0.00 | 0.00 | 50 | 977.7 |
| 20260503130109 | 46 | 332 | 3.5 | 0.0 | 0.00 | 0.00 | 0.00 | 71 | 978.3 |